Time;durP1;ratioP1;P1;durP2;ratioP2;P2;SDS_P1;SDS_P2;PMS_P1;PMS_P2;Temp;Humidity;BMP_temperature;BMP_pressure;BME280_temperature;BME280_humidity;BME280_pressure;Samples;Min_cycle;Max_cycle;Signal;HPM_P1;HPM_P2
2023/09/11 00:01:47;;;;;;;21.30;14.75;;;;;;;-148.88;100.00;-17125.47;4959635;28;20102;-84
2023/09/11 00:04:15;;;;;;;21.98;16.20;;;;;;;-148.88;100.00;-17125.47;4958998;29;20027;-85
2023/09/11 00:06:41;;;;;;;21.58;16.08;;;;;;;-148.88;100.00;-17125.47;4957320;29;20019;-85
2023/09/11 00:09:07;;;;;;;20.10;15.38;;;;;;;-148.88;100.00;-17125.47;4960804;29;20023;-85
2023/09/11 00:11:32;;;;;;;20.48;15.48;;;;;;;-148.88;100.00;-17125.47;4958489;28;20131;-84
2023/09/11 00:14:06;;;;;;;22.42;15.45;;;;;;;-148.88;100.00;-17125.47;4959503;28;20067;-84
2023/09/11 00:16:43;;;;;;;22.65;16.38;;;;;;;-148.88;100.00;-17125.47;4958140;28;20027;-84
2023/09/11 00:19:11;;;;;;;23.42;17.17;;;;;;;-148.88;100.00;-17125.47;4957130;29;20031;-84
2023/09/11 00:21:36;;;;;;;22.10;16.88;;;;;;;-148.88;100.00;-17125.47;4955651;28;20455;-84
2023/09/11 00:24:05;;;;;;;23.95;17.30;;;;;;;-148.88;100.00;-17125.47;4956570;29;20057;-84
2023/09/11 00:26:36;;;;;;;29.00;18.55;;;;;;;-148.88;100.00;-17125.47;4956322;29;20425;-84
2023/09/11 00:29:13;;;;;;;22.80;17.27;;;;;;;-148.88;100.00;-17125.47;4956759;29;20393;-84
2023/09/11 00:32:01;;;;;;;23.73;17.20;;;;;;;-148.88;100.00;-17125.47;4957877;28;20034;-86
2023/09/11 00:34:29;;;;;;;21.42;17.02;;;;;;;-148.88;100.00;-17125.47;4956983;29;20400;-86
2023/09/11 00:36:58;;;;;;;24.17;16.73;;;;;;;-148.88;100.00;-17125.47;4955574;29;20035;-86
2023/09/11 00:39:26;;;;;;;21.35;17.02;;;;;;;-148.88;100.00;-17125.47;4955740;29;20034;-86
2023/09/11 00:41:55;;;;;;;24.55;16.23;;;;;;;-148.88;100.00;-17125.47;4956567;28;20034;-86
2023/09/11 00:44:41;;;;;;;25.52;17.48;;;;;;;-148.88;100.00;-17125.47;4956176;28;20453;-86
2023/09/11 00:47:32;;;;;;;26.33;18.23;;;;;;;-148.88;100.00;-17125.47;4958514;29;20027;-86
2023/09/11 00:50:01;;;;;;;26.67;18.65;;;;;;;-148.88;100.00;-17125.47;4951998;29;20035;-85
2023/09/11 00:52:26;;;;;;;26.10;19.00;;;;;;;-148.88;100.00;-17125.47;4957168;28;20062;-86
2023/09/11 00:54:54;;;;;;;24.65;18.80;;;;;;;-148.88;100.00;-17125.47;4955192;29;20023;-84
2023/09/11 00:57:23;;;;;;;26.77;19.13;;;;;;;-148.88;100.00;-17125.47;4955671;29;20367;-86
2023/09/11 00:59:52;;;;;;;25.02;19.67;;;;;;;-148.88;100.00;-17125.47;4956740;28;20085;-86
2023/09/11 01:02:44;;;;;;;22.20;18.33;;;;;;;-148.88;100.00;-17125.47;4955160;28;20023;-86
2023/09/11 01:05:09;;;;;;;23.67;19.13;;;;;;;-148.88;100.00;-17125.47;4926636;29;20062;-86
2023/09/11 01:07:44;;;;;;;26.33;19.17;;;;;;;-148.88;100.00;-17125.47;4955452;29;20020;-86
2023/09/11 01:10:12;;;;;;;23.50;18.35;;;;;;;-148.88;100.00;-17125.47;4955753;29;20557;-84
2023/09/11 01:12:47;;;;;;;25.17;18.55;;;;;;;-148.88;100.00;-17125.47;4957599;28;20031;-85
2023/09/11 01:15:20;;;;;;;23.08;17.92;;;;;;;-148.88;100.00;-17125.47;4956761;29;20041;-84
2023/09/11 01:18:04;;;;;;;21.38;16.92;;;;;;;-148.88;100.00;-17125.47;4956409;29;20031;-86
2023/09/11 01:21:13;;;;;;;24.73;18.55;;;;;;;-148.88;100.00;-17125.47;4955253;29;20102;-86
2023/09/11 01:23:57;;;;;;;21.10;17.45;;;;;;;-148.88;100.00;-17125.47;4955066;28;20027;-87
2023/09/11 01:27:08;;;;;;;24.08;19.27;;;;;;;-148.88;100.00;-17125.47;4955666;29;20035;-86
2023/09/11 01:29:46;;;;;;;23.58;19.75;;;;;;;-148.88;100.00;-17125.47;4885652;29;20036;-84
2023/09/11 01:32:33;;;;;;;24.85;18.67;;;;;;;-148.88;100.00;-17125.47;4898066;29;20032;-84
2023/09/11 01:34:58;;;;;;;25.55;19.58;;;;;;;-148.88;100.00;-17125.47;4935208;29;20042;-84
2023/09/11 01:37:24;;;;;;;26.55;21.08;;;;;;;-148.88;100.00;-17125.47;4955119;29;20023;-84
2023/09/11 01:39:55;;;;;;;26.33;21.35;;;;;;;-148.88;100.00;-17125.47;4955100;29;20038;-84
2023/09/11 01:42:45;;;;;;;25.60;20.67;;;;;;;-148.88;100.00;-17125.47;4955951;28;20501;-84
2023/09/11 01:45:15;;;;;;;24.30;21.70;;;;;;;-148.88;100.00;-17125.47;4954685;29;20038;-84
2023/09/11 01:48:06;;;;;;;25.92;20.08;;;;;;;-148.88;100.00;-17125.47;4956024;28;20099;-84
2023/09/11 01:50:42;;;;;;;28.55;23.05;;;;;;;-148.88;100.00;-17125.47;4955547;28;20027;-84
2023/09/11 01:53:08;;;;;;;29.50;21.88;;;;;;;-148.88;100.00;-17125.47;4953717;28;20039;-84
2023/09/11 01:55:37;;;;;;;32.88;21.95;;;;;;;-148.88;100.00;-17125.47;4956148;28;20474;-86
2023/09/11 01:58:05;;;;;;;27.58;21.17;;;;;;;-148.88;100.00;-17125.47;4958043;29;20043;-84
2023/09/11 02:00:31;;;;;;;26.70;20.83;;;;;;;-148.88;100.00;-17125.47;4959220;28;20082;-84
2023/09/11 02:02:57;;;;;;;24.98;20.17;;;;;;;-148.88;100.00;-17125.47;4959554;28;20394;-84
2023/09/11 02:05:22;;;;;;;28.75;21.33;;;;;;;-148.88;100.00;-17125.47;4958803;28;20031;-84
2023/09/11 02:07:48;;;;;;;25.10;19.58;;;;;;;-148.88;100.00;-17125.47;4958712;28;20031;-84
2023/09/11 02:10:13;;;;;;;26.02;20.95;;;;;;;-148.88;100.00;-17125.47;4957388;29;20058;-84
2023/09/11 02:12:48;;;;;;;29.70;21.52;;;;;;;-148.88;100.00;-17125.47;4958552;28;20032;-84
2023/09/11 02:15:14;;;;;;;24.38;20.40;;;;;;;-148.88;100.00;-17125.47;4957236;29;20031;-84
2023/09/11 02:17:42;;;;;;;25.83;21.15;;;;;;;-148.88;100.00;-17125.47;4957370;29;20082;-86
2023/09/11 02:20:08;;;;;;;26.65;21.50;;;;;;;-148.88;100.00;-17125.47;4957271;29;20143;-87
2023/09/11 02:22:44;;;;;;;29.00;22.08;;;;;;;-148.88;100.00;-17125.47;4957614;28;20545;-86
2023/09/11 02:25:12;;;;;;;27.48;21.85;;;;;;;-148.88;100.00;-17125.47;4958384;29;20033;-86
2023/09/11 02:27:38;;;;;;;29.80;22.27;;;;;;;-148.88;100.00;-17125.47;4957796;29;20059;-86
2023/09/11 02:30:05;;;;;;;25.15;22.17;;;;;;;-148.88;100.00;-17125.47;4957061;29;20085;-87
2023/09/11 02:32:48;;;;;;;29.13;22.17;;;;;;;-148.88;100.00;-17125.47;4957137;28;20114;-86
2023/09/11 02:35:13;;;;;;;30.92;22.38;;;;;;;-148.88;100.00;-17125.47;4957247;29;20047;-86
2023/09/11 02:37:39;;;;;;;26.55;21.38;;;;;;;-148.88;100.00;-17125.47;4958413;28;20090;-86
2023/09/11 02:40:07;;;;;;;29.25;22.15;;;;;;;-148.88;100.00;-17125.47;4958405;29;20028;-86
2023/09/11 02:42:33;;;;;;;28.20;22.90;;;;;;;-148.88;100.00;-17125.47;4959022;28;20472;-86
2023/09/11 02:45:06;;;;;;;29.13;23.70;;;;;;;-148.88;100.00;-17125.47;4959238;29;20060;-86
2023/09/11 02:47:34;;;;;;;27.02;23.90;;;;;;;-148.88;100.00;-17125.47;4957426;29;20023;-86
2023/09/11 02:50:06;;;;;;;32.67;24.15;;;;;;;-148.88;100.00;-17125.47;4957025;29;20032;-86
2023/09/11 02:52:39;;;;;;;32.97;24.17;;;;;;;-148.88;100.00;-17125.47;4958228;28;20027;-86
2023/09/11 02:55:11;;;;;;;26.45;23.38;;;;;;;-148.88;100.00;-17125.47;4957790;28;20030;-87
2023/09/11 02:57:40;;;;;;;29.60;23.52;;;;;;;-148.88;100.00;-17125.47;4956098;29;20031;-84
2023/09/11 03:00:21;;;;;;;30.23;24.20;;;;;;;-148.88;100.00;-17125.47;4957497;28;20486;-85
2023/09/11 03:02:46;;;;;;;28.35;22.73;;;;;;;-148.88;100.00;-17125.47;4956954;28;20249;-84
2023/09/11 03:05:23;;;;;;;30.63;24.00;;;;;;;-148.88;100.00;-17125.47;4957675;28;20058;-85
2023/09/11 03:07:50;;;;;;;31.42;24.15;;;;;;;-148.88;100.00;-17125.47;4957292;28;20034;-85
2023/09/11 03:10:15;;;;;;;27.85;24.17;;;;;;;-148.88;100.00;-17125.47;4956238;29;20031;-86
2023/09/11 03:12:49;;;;;;;29.67;24.40;;;;;;;-148.88;100.00;-17125.47;4956024;28;20430;-86
2023/09/11 03:15:15;;;;;;;27.35;22.85;;;;;;;-148.88;100.00;-17125.47;4957589;28;20035;-87
2023/09/11 03:17:48;;;;;;;28.45;22.73;;;;;;;-148.88;100.00;-17125.47;4956285;29;20033;-84
2023/09/11 03:20:19;;;;;;;24.17;21.35;;;;;;;-148.88;100.00;-17125.47;4956837;29;20039;-87
2023/09/11 03:22:44;;;;;;;29.30;22.02;;;;;;;-148.88;100.00;-17125.47;4957090;28;20023;-84
2023/09/11 03:25:10;;;;;;;26.30;22.63;;;;;;;-148.88;100.00;-17125.47;4955759;29;20442;-85
2023/09/11 03:27:35;;;;;;;29.45;23.17;;;;;;;-148.88;100.00;-17125.47;4957512;28;20087;-85
2023/09/11 03:30:07;;;;;;;31.55;25.50;;;;;;;-148.88;100.00;-17125.47;4955417;29;20118;-85
2023/09/11 03:32:32;;;;;;;28.08;23.40;;;;;;;-148.88;100.00;-17125.47;4956182;28;20114;-84
2023/09/11 03:34:58;;;;;;;29.42;24.88;;;;;;;-148.88;100.00;-17125.47;4957092;28;20059;-84
2023/09/11 03:37:24;;;;;;;28.27;23.75;;;;;;;-148.88;100.00;-17125.47;4956921;28;20458;-84
2023/09/11 03:39:49;;;;;;;32.53;22.98;;;;;;;-148.88;100.00;-17125.47;4956205;29;20051;-85
2023/09/11 03:42:27;;;;;;;31.50;24.27;;;;;;;-148.88;100.00;-17125.47;4957102;28;20038;-84
2023/09/11 03:44:55;;;;;;;26.77;23.30;;;;;;;-148.88;100.00;-17125.47;4956567;28;20027;-87
2023/09/11 03:47:20;;;;;;;32.28;26.02;;;;;;;-148.88;100.00;-17125.47;4955076;29;20049;-84
2023/09/11 03:49:53;;;;;;;30.15;25.50;;;;;;;-148.88;100.00;-17125.47;4956765;28;20029;-88
2023/09/11 03:52:18;;;;;;;30.40;26.83;;;;;;;-148.88;100.00;-17125.47;4955642;28;20039;-84
2023/09/11 03:54:43;;;;;;;30.98;25.77;;;;;;;-148.88;100.00;-17125.47;4956175;28;20023;-84
2023/09/11 03:57:09;;;;;;;29.42;26.33;;;;;;;-148.88;100.00;-17125.47;4955458;29;20082;-84
2023/09/11 03:59:35;;;;;;;30.08;25.98;;;;;;;-148.88;100.00;-17125.47;4957219;28;20114;-85
2023/09/11 04:02:01;;;;;;;34.40;26.92;;;;;;;-148.88;100.00;-17125.47;4956782;28;20031;-85
2023/09/11 04:04:26;;;;;;;29.35;25.40;;;;;;;-148.88;100.00;-17125.47;4955309;29;20050;-85
2023/09/11 04:06:55;;;;;;;29.73;25.85;;;;;;;-148.88;100.00;-17125.47;4954578;29;20366;-84
2023/09/11 04:09:23;;;;;;;33.97;27.23;;;;;;;-148.88;100.00;-17125.47;4955060;29;20023;-86
2023/09/11 04:11:49;;;;;;;31.85;25.90;;;;;;;-148.88;100.00;-17125.47;4955938;28;20679;-85
2023/09/11 04:14:18;;;;;;;29.75;25.25;;;;;;;-148.88;100.00;-17125.47;4955387;29;20050;-85
2023/09/11 04:16:43;;;;;;;28.42;25.25;;;;;;;-148.88;100.00;-17125.47;4956027;29;20482;-84
2023/09/11 04:19:08;;;;;;;30.65;26.45;;;;;;;-148.88;100.00;-17125.47;4955220;28;20074;-85
2023/09/11 04:21:34;;;;;;;30.75;25.95;;;;;;;-148.88;100.00;-17125.47;4963753;23;20066;-73
2023/09/11 04:23:59;;;;;;;32.58;28.00;;;;;;;-148.88;100.00;-17125.47;4973115;28;20473;-74
2023/09/11 04:26:25;;;;;;;29.55;25.63;;;;;;;-148.88;100.00;-17125.47;4988583;28;20109;-75
2023/09/11 04:28:50;;;;;;;31.15;27.15;;;;;;;-148.88;100.00;-17125.47;4973827;28;20027;-75
2023/09/11 04:31:15;;;;;;;34.08;28.67;;;;;;;-148.88;100.00;-17125.47;4973883;28;20427;-74
2023/09/11 04:33:41;;;;;;;31.38;26.67;;;;;;;-148.88;100.00;-17125.47;4972857;23;20054;-76
2023/09/11 04:36:06;;;;;;;31.50;26.92;;;;;;;-148.88;100.00;-17125.47;4954782;28;20050;-75
2023/09/11 04:38:32;;;;;;;29.65;26.25;;;;;;;-148.88;100.00;-17125.47;4953708;29;20030;-75
2023/09/11 04:40:57;;;;;;;32.92;27.52;;;;;;;-148.88;100.00;-17125.47;4954718;29;20412;-77
2023/09/11 04:43:25;;;;;;;31.55;26.67;;;;;;;-148.88;100.00;-17125.47;4954997;29;20050;-76
2023/09/11 04:45:51;;;;;;;33.80;26.05;;;;;;;-148.88;100.00;-17125.47;4954749;28;20122;-77
2023/09/11 04:48:16;;;;;;;30.08;23.90;;;;;;;-148.88;100.00;-17125.47;4954715;28;20470;-76
2023/09/11 04:50:42;;;;;;;32.03;25.83;;;;;;;-148.88;100.00;-17125.47;4954696;29;20027;-76
2023/09/11 04:53:07;;;;;;;30.30;25.55;;;;;;;-148.88;100.00;-17125.47;4954728;28;20019;-75
2023/09/11 04:55:32;;;;;;;31.20;25.67;;;;;;;-148.88;100.00;-17125.47;4954823;28;20059;-76
2023/09/11 04:57:58;;;;;;;31.25;24.70;;;;;;;-148.88;100.00;-17125.47;4954702;28;20039;-75
2023/09/11 05:00:24;;;;;;;32.92;25.55;;;;;;;-148.88;100.00;-17125.47;4957194;28;20023;-75
2023/09/11 05:02:50;;;;;;;28.75;24.52;;;;;;;-148.88;100.00;-17125.47;4955358;28;20031;-75
2023/09/11 05:05:15;;;;;;;29.45;26.02;;;;;;;-148.88;100.00;-17125.47;4955399;28;20454;-75
2023/09/11 05:07:41;;;;;;;33.58;26.67;;;;;;;-148.88;100.00;-17125.47;4953608;28;20031;-75
2023/09/11 05:10:08;;;;;;;30.23;26.10;;;;;;;-148.88;100.00;-17125.47;4954742;28;20027;-76
2023/09/11 05:12:35;;;;;;;29.15;24.95;;;;;;;-148.88;100.00;-17125.47;4954798;28;20449;-76
2023/09/11 05:15:01;;;;;;;31.60;26.25;;;;;;;-148.88;100.00;-17125.47;4954538;28;20482;-75
2023/09/11 05:17:27;;;;;;;28.83;24.40;;;;;;;-148.88;100.00;-17125.47;4953334;28;20042;-76
2023/09/11 05:19:52;;;;;;;30.65;25.05;;;;;;;-148.88;100.00;-17125.47;4954848;29;20043;-76
2023/09/11 05:22:19;;;;;;;29.20;24.88;;;;;;;-148.88;100.00;-17125.47;4955190;28;20093;-76
2023/09/11 05:24:44;;;;;;;31.05;25.02;;;;;;;-148.88;100.00;-17125.47;4954691;28;20086;-76
2023/09/11 05:27:09;;;;;;;29.85;24.65;;;;;;;-148.88;100.00;-17125.47;4954561;28;20464;-76
2023/09/11 05:29:35;;;;;;;27.55;24.58;;;;;;;-148.88;100.00;-17125.47;4955028;28;20029;-76
2023/09/11 05:32:00;;;;;;;28.90;25.63;;;;;;;-148.88;100.00;-17125.47;4957011;28;20023;-76
2023/09/11 05:34:25;;;;;;;28.23;24.77;;;;;;;-148.88;100.00;-17125.47;4958418;29;20106;-76
2023/09/11 05:36:51;;;;;;;31.17;25.48;;;;;;;-148.88;100.00;-17125.47;4958558;28;20019;-76
2023/09/11 05:39:16;;;;;;;30.45;25.90;;;;;;;-148.88;100.00;-17125.47;4958947;28;20066;-76
2023/09/11 05:41:41;;;;;;;28.30;23.80;;;;;;;-148.88;100.00;-17125.47;4958425;28;20050;-76
2023/09/11 05:44:07;;;;;;;31.27;24.33;;;;;;;-148.88;100.00;-17125.47;4957965;28;20486;-75
2023/09/11 05:46:32;;;;;;;30.48;26.52;;;;;;;-148.88;100.00;-17125.47;4957835;28;20054;-75
2023/09/11 05:48:58;;;;;;;28.15;25.17;;;;;;;-148.88;100.00;-17125.47;4957977;28;20030;-76
2023/09/11 05:51:23;;;;;;;35.13;26.10;;;;;;;-148.88;100.00;-17125.47;4958302;28;20032;-75
2023/09/11 05:53:48;;;;;;;33.05;25.98;;;;;;;-148.88;100.00;-17125.47;4957828;28;20399;-76
2023/09/11 05:56:14;;;;;;;30.83;25.60;;;;;;;-148.88;100.00;-17125.47;4956411;28;20370;-75
2023/09/11 05:58:41;;;;;;;29.75;25.92;;;;;;;-148.88;100.00;-17125.47;4957837;28;20367;-75
2023/09/11 06:01:07;;;;;;;30.98;25.95;;;;;;;-148.88;100.00;-17125.47;4957931;29;20094;-75
2023/09/11 06:03:32;;;;;;;33.30;26.08;;;;;;;-148.88;100.00;-17125.47;4956127;29;20456;-75
2023/09/11 06:05:59;;;;;;;32.22;24.52;;;;;;;-148.88;100.00;-17125.47;4956261;29;20027;-75
2023/09/11 06:08:25;;;;;;;31.98;25.15;;;;;;;-148.88;100.00;-17125.47;4957993;28;20113;-75
2023/09/11 06:10:50;;;;;;;29.65;25.42;;;;;;;-148.88;100.00;-17125.47;4957355;29;20025;-75
2023/09/11 06:13:15;;;;;;;28.33;24.88;;;;;;;-148.88;100.00;-17125.47;4957580;28;20042;-75
2023/09/11 06:15:41;;;;;;;32.20;24.13;;;;;;;-148.88;100.00;-17125.47;4957886;28;20030;-75
2023/09/11 06:18:07;;;;;;;28.90;24.42;;;;;;;-148.88;100.00;-17125.47;4955681;28;20023;-75
2023/09/11 06:20:34;;;;;;;32.33;24.30;;;;;;;-148.88;100.00;-17125.47;4957298;28;20090;-75
2023/09/11 06:22:59;;;;;;;29.15;25.52;;;;;;;-148.88;100.00;-17125.47;4957232;28;20102;-75
2023/09/11 06:25:25;;;;;;;29.27;24.63;;;;;;;-148.88;100.00;-17125.47;4955699;29;20069;-75
2023/09/11 06:27:51;;;;;;;34.22;26.58;;;;;;;-148.88;100.00;-17125.47;4956127;28;20050;-75
2023/09/11 06:30:17;;;;;;;31.10;26.98;;;;;;;-148.88;100.00;-17125.47;4956981;28;20031;-75
2023/09/11 06:32:42;;;;;;;37.53;26.02;;;;;;;-148.88;100.00;-17125.47;4955429;29;20130;-75
2023/09/11 06:35:08;;;;;;;32.22;25.23;;;;;;;-148.88;100.00;-17125.47;4955592;29;20058;-75
2023/09/11 06:37:33;;;;;;;30.55;25.33;;;;;;;-148.88;100.00;-17125.47;4956818;28;20560;-75
2023/09/11 06:39:58;;;;;;;28.20;25.10;;;;;;;-148.88;100.00;-17125.47;4957328;28;20035;-75
2023/09/11 06:42:24;;;;;;;27.17;24.27;;;;;;;-148.88;100.00;-17125.47;4956260;28;20038;-75
2023/09/11 06:44:51;;;;;;;28.55;25.45;;;;;;;-148.88;100.00;-17125.47;4956768;28;20038;-75
2023/09/11 06:47:17;;;;;;;26.85;23.42;;;;;;;-148.88;100.00;-17125.47;4956742;28;20034;-75
2023/09/11 06:49:42;;;;;;;32.70;23.27;;;;;;;-148.88;100.00;-17125.47;4956886;28;20370;-75
2023/09/11 06:52:08;;;;;;;26.98;24.00;;;;;;;-148.88;100.00;-17125.47;4957542;28;20039;-75
2023/09/11 06:54:33;;;;;;;29.27;23.77;;;;;;;-148.88;100.00;-17125.47;4956716;28;20110;-75
2023/09/11 06:56:58;;;;;;;33.85;24.10;;;;;;;-148.88;100.00;-17125.47;4956586;28;20029;-75
2023/09/11 06:59:24;;;;;;;29.73;24.05;;;;;;;-148.88;100.00;-17125.47;4955095;29;20038;-75
2023/09/11 07:01:50;;;;;;;28.17;23.77;;;;;;;-148.88;100.00;-17125.47;4956441;28;20027;-75
2023/09/11 07:04:16;;;;;;;31.40;23.65;;;;;;;-148.88;100.00;-17125.47;4956470;28;20421;-75
2023/09/11 07:06:42;;;;;;;31.85;22.23;;;;;;;-148.88;100.00;-17125.47;4954860;28;20023;-75
2023/09/11 07:09:08;;;;;;;29.95;22.20;;;;;;;-148.88;100.00;-17125.47;4956226;29;20049;-75
2023/09/11 07:11:33;;;;;;;28.95;23.70;;;;;;;-148.88;100.00;-17125.47;4956482;28;20027;-75
2023/09/11 07:13:59;;;;;;;29.40;23.13;;;;;;;-148.88;100.00;-17125.47;4956503;28;20034;-75
2023/09/11 07:16:25;;;;;;;28.83;23.77;;;;;;;-148.88;100.00;-17125.47;4956936;28;20023;-75
2023/09/11 07:18:51;;;;;;;29.92;23.67;;;;;;;-148.88;100.00;-17125.47;4955966;28;20039;-75
2023/09/11 07:21:16;;;;;;;29.38;22.38;;;;;;;-148.88;100.00;-17125.47;4956047;28;20023;-75
2023/09/11 07:23:41;;;;;;;29.65;21.23;;;;;;;-148.88;100.00;-17125.47;4956229;28;20029;-75
2023/09/11 07:26:07;;;;;;;26.38;21.48;;;;;;;-148.88;100.00;-17125.47;4955441;28;20034;-74
2023/09/11 07:28:34;;;;;;;29.98;21.48;;;;;;;-148.88;100.00;-17125.47;4956456;28;20026;-75
2023/09/11 07:30:59;;;;;;;27.05;20.40;;;;;;;-148.88;100.00;-17125.47;4954961;29;20114;-75
2023/09/11 07:33:25;;;;;;;29.02;18.63;;;;;;;-148.88;100.00;-17125.47;4955966;29;20130;-75
2023/09/11 07:35:50;;;;;;;27.17;18.65;;;;;;;-148.88;100.00;-17125.47;4956149;28;20397;-76
2023/09/11 07:38:16;;;;;;;26.02;18.63;;;;;;;-148.88;100.00;-17125.47;4955720;28;20063;-76
2023/09/11 07:40:42;;;;;;;25.35;18.00;;;;;;;-148.88;100.00;-17125.47;4955980;29;20138;-76
2023/09/11 07:43:08;;;;;;;23.25;18.58;;;;;;;-148.88;100.00;-17125.47;4954641;29;20034;-76
2023/09/11 07:45:34;;;;;;;27.27;16.83;;;;;;;-148.88;100.00;-17125.47;4955632;28;20027;-75
2023/09/11 07:47:59;;;;;;;27.10;15.93;;;;;;;-148.88;100.00;-17125.47;4955494;28;20038;-75
2023/09/11 07:50:25;;;;;;;22.65;15.55;;;;;;;-148.88;100.00;-17125.47;4955498;29;20346;-75
2023/09/11 07:52:51;;;;;;;20.98;14.32;;;;;;;-148.88;100.00;-17125.47;4954609;28;20046;-75
2023/09/11 07:55:17;;;;;;;24.42;12.98;;;;;;;-148.88;100.00;-17125.47;4955723;28;20397;-75
2023/09/11 07:57:44;;;;;;;22.40;12.85;;;;;;;-148.88;100.00;-17125.47;4955311;28;20402;-75
2023/09/11 08:00:10;;;;;;;29.98;13.60;;;;;;;-148.88;100.00;-17125.47;4955182;29;20436;-76
2023/09/11 08:02:36;;;;;;;19.85;12.30;;;;;;;-148.88;100.00;-17125.47;4953973;29;20121;-75
2023/09/11 08:05:02;;;;;;;22.85;12.55;;;;;;;-148.88;100.00;-17125.47;4954220;29;20023;-75
2023/09/11 08:07:27;;;;;;;22.45;11.38;;;;;;;-148.88;100.00;-17125.47;4955369;28;20023;-75
2023/09/11 08:09:53;;;;;;;22.90;11.73;;;;;;;-148.88;100.00;-17125.47;4955199;28;20027;-75
2023/09/11 08:12:18;;;;;;;27.27;12.02;;;;;;;-148.88;100.00;-17125.47;4955443;28;20031;-75
2023/09/11 08:14:50;;;;;;;23.67;11.98;;;;;;;-148.88;100.00;-17125.47;5070528;28;20371;-75
2023/09/11 08:17:15;;;;;;;20.40;11.43;;;;;;;-148.88;100.00;-17125.47;5069651;28;20035;-75
2023/09/11 08:19:40;;;;;;;20.75;11.68;;;;;;;-148.88;100.00;-17125.47;5069619;28;20021;-75
2023/09/11 08:22:06;;;;;;;19.83;10.57;;;;;;;-148.88;100.00;-17125.47;5070035;28;20164;-76
2023/09/11 08:24:31;;;;;;;21.98;11.40;;;;;;;-148.88;100.00;-17125.47;5069507;28;20139;-75
2023/09/11 08:26:57;;;;;;;25.60;10.85;;;;;;;-148.88;100.00;-17125.47;5069355;28;20046;-75
2023/09/11 08:29:22;;;;;;;17.80;10.27;;;;;;;-148.88;100.00;-17125.47;5069319;28;20441;-75
2023/09/11 08:31:47;;;;;;;20.08;10.82;;;;;;;-148.88;100.00;-17125.47;5069283;28;20020;-75
2023/09/11 08:34:13;;;;;;;20.95;10.93;;;;;;;-148.88;100.00;-17125.47;5069367;28;20467;-75
2023/09/11 08:36:38;;;;;;;18.48;9.27;;;;;;;-148.88;100.00;-17125.47;5069176;28;20028;-76
2023/09/11 08:39:04;;;;;;;17.73;10.05;;;;;;;-148.88;100.00;-17125.47;5069378;28;20187;-75
2023/09/11 08:41:30;;;;;;;18.67;10.02;;;;;;;-148.88;100.00;-17125.47;5069729;28;20104;-75
2023/09/11 08:43:56;;;;;;;19.05;10.07;;;;;;;-148.88;100.00;-17125.47;5069474;28;20024;-75
2023/09/11 08:46:22;;;;;;;16.95;10.07;;;;;;;-148.88;100.00;-17125.47;5069089;28;20090;-75
2023/09/11 08:48:53;;;;;;;17.42;9.32;;;;;;;-148.88;100.00;-17125.47;5069216;28;20024;-75
2023/09/11 08:51:42;;;;;;;20.40;9.98;;;;;;;-148.88;100.00;-17125.47;5067767;28;20020;-76
2023/09/11 08:54:09;;;;;;;16.83;9.52;;;;;;;-148.88;100.00;-17125.47;5069125;28;20044;-76
2023/09/11 08:56:35;;;;;;;21.00;9.98;;;;;;;-148.88;100.00;-17125.47;5067478;28;20107;-75
2023/09/11 08:59:04;;;;;;;18.98;8.82;;;;;;;-148.88;100.00;-17125.47;5068793;28;20443;-76
2023/09/11 09:01:31;;;;;;;25.73;10.07;;;;;;;-148.88;100.00;-17125.47;5069226;28;20031;-76
2023/09/11 09:03:59;;;;;;;23.83;8.55;;;;;;;-148.88;100.00;-17125.47;5068581;28;20063;-76
2023/09/11 09:06:25;;;;;;;16.83;8.80;;;;;;;-148.88;100.00;-17125.47;5068801;28;20029;-76
2023/09/11 09:08:52;;;;;;;17.92;9.50;;;;;;;-148.88;98.42;-17125.47;5068848;28;20029;-76
2023/09/11 09:11:20;;;;;;;17.38;7.45;;;;;;;-148.88;100.00;-17125.47;5068873;28;20048;-75
2023/09/11 09:13:45;;;;;;;22.67;8.85;;;;;;;-148.88;97.60;-17125.47;5068310;28;20074;-76
2023/09/11 09:16:11;;;;;;;14.32;7.88;;;;;;;-148.88;93.23;-17125.47;5068638;28;20074;-76
2023/09/11 09:18:36;;;;;;;16.88;7.93;;;;;;;-148.88;95.23;-17125.47;5068763;28;20487;-76
2023/09/11 09:21:04;;;;;;;14.85;7.55;;;;;;;-148.88;94.84;-17125.47;5068919;28;20027;-76
2023/09/11 09:23:35;;;;;;;21.70;8.93;;;;;;;-148.88;94.16;-17125.47;5068525;28;20488;-76
2023/09/11 09:26:07;;;;;;;16.90;7.53;;;;;;;-148.88;94.02;-17125.47;5056321;28;20029;-76
2023/09/11 09:28:33;;;;;;;17.98;7.88;;;;;;;-148.88;94.07;-17125.47;5055240;28;20037;-76
2023/09/11 09:30:59;;;;;;;20.45;8.18;;;;;;;-148.88;92.96;-17125.47;5055267;28;20048;-76
2023/09/11 09:33:25;;;;;;;16.67;8.15;;;;;;;-148.88;92.67;-17125.47;5054801;28;20483;-76
2023/09/11 09:35:50;;;;;;;15.73;7.80;;;;;;;-148.88;91.99;-17125.47;5054775;28;20029;-76
2023/09/11 09:38:19;;;;;;;23.02;8.23;;;;;;;-148.88;90.81;-17125.47;5053489;28;20017;-76
2023/09/11 09:40:45;;;;;;;15.07;7.70;;;;;;;-148.88;89.44;-17125.47;5055207;28;20449;-76
2023/09/11 09:43:15;;;;;;;21.00;8.52;;;;;;;-148.88;86.05;-17125.47;5054772;28;20016;-76
2023/09/11 09:45:44;;;;;;;15.57;7.80;;;;;;;-148.88;87.90;-17125.47;5054758;28;20029;-76
2023/09/11 09:48:16;;;;;;;18.98;8.00;;;;;;;-148.88;86.96;-17125.47;5054648;28;20028;-76
2023/09/11 09:51:00;;;;;;;16.75;8.23;;;;;;;-148.88;85.29;-17125.47;5053279;28;20029;-76
2023/09/11 09:53:26;;;;;;;;;;;;;;;-148.88;84.02;-17125.47;5055082;28;20021;-76
2023/09/11 09:55:54;;;;;;;18.38;8.02;;;;;;;-148.88;86.23;-17125.47;5054883;28;19938;-76
2023/09/11 09:58:24;;;;;;;22.55;8.02;;;;;;;-148.88;86.11;-17125.47;5054694;28;20021;-76
2023/09/11 10:00:49;;;;;;;17.40;7.22;;;;;;;-148.88;83.38;-17125.47;5053303;28;20025;-76
2023/09/11 10:03:15;;;;;;;14.35;7.03;;;;;;;-148.88;83.08;-17125.47;5054328;28;20029;-75
2023/09/11 10:05:41;;;;;;;22.08;8.95;;;;;;;-148.88;80.72;-17125.47;5054344;28;20021;-76
2023/09/11 10:08:07;;;;;;;16.33;7.72;;;;;;;-148.88;78.30;-17125.47;5054260;28;20021;-76
2023/09/11 10:10:33;;;;;;;22.50;7.78;;;;;;;-148.88;85.32;-17125.47;5054212;28;20086;-76
2023/09/11 10:13:10;;;;;;;19.17;8.45;;;;;;;-148.88;78.66;-17125.47;5053971;28;20028;-76
2023/09/11 10:15:37;;;;;;;15.40;7.72;;;;;;;-148.88;80.73;-17125.47;5054471;28;20021;-76
2023/09/11 10:18:04;;;;;;;15.95;7.80;;;;;;;-148.88;78.25;-17125.47;5054103;28;20091;-76
2023/09/11 10:20:30;;;;;;;16.52;7.97;;;;;;;-148.88;77.16;-17125.47;5054274;28;20433;-76
2023/09/11 10:22:58;;;;;;;13.23;7.13;;;;;;;-148.88;81.88;-17125.47;5054214;28;20028;-76
2023/09/11 10:25:24;;;;;;;20.30;7.88;;;;;;;-148.88;76.74;-17125.47;5054134;28;20040;-76
2023/09/11 10:27:56;;;;;;;21.10;7.57;;;;;;;-148.88;80.42;-17125.47;5053844;28;20024;-76
2023/09/11 10:30:26;;;;;;;18.73;8.13;;;;;;;-148.88;77.73;-17125.47;5053892;28;20021;-75
2023/09/11 10:33:06;;;;;;;17.98;7.97;;;;;;;-148.88;77.61;-17125.47;5056924;28;20017;-77
2023/09/11 10:35:38;;;;;;;14.30;8.18;;;;;;;-148.88;78.05;-17125.47;5058323;28;20109;-76
2023/09/11 10:38:05;;;;;;;17.25;8.35;;;;;;;-148.88;73.66;-17125.47;5052892;28;20507;-76
2023/09/11 10:40:32;;;;;;;14.35;7.63;;;;;;;-148.88;79.56;-17125.47;5052370;28;20061;-76
2023/09/11 10:42:58;;;;;;;16.27;8.05;;;;;;;-148.88;77.44;-17125.47;5053603;28;20017;-76
2023/09/11 10:45:28;;;;;;;13.00;7.55;;;;;;;-148.88;74.19;-17125.47;5053580;28;20052;-76
2023/09/11 10:47:54;;;;;;;14.93;8.25;;;;;;;-148.88;74.87;-17125.47;5052078;28;20032;-76
2023/09/11 10:50:22;;;;;;;19.60;7.38;;;;;;;-148.88;70.06;-17125.47;5053989;28;20017;-76
2023/09/11 10:52:48;;;;;;;14.40;7.10;;;;;;;-148.88;73.96;-17125.47;5053512;28;20017;-76
2023/09/11 10:55:15;;;;;;;12.75;6.72;;;;;;;-148.88;68.82;-17125.47;5053637;28;20040;-76